Altamont, New York
Current Conditions -  °F | °C
As of 2:51 PM on Monday 24 Nov 2014 (Local Time) from KALB Reporting Station
Scattered Clouds Scattered Clouds  
Wind Chill: 70°   Ceiling: Unl
Heat Index: 70°   Visibility: 10mi
Dew Point: 56°   Wind: 20mph
Humidity: 61%   Direction: 170°S
Pressure: 29.45"   Gusts: 29mph
Location:  42.7°N, 74.03°W
Report Text: KALB 241951Z 17017G25KT 10SM SCT030 SCT060 21/13 A2945 RMK AO2 PK WND 19031/1907 SLP973 SCT060 V BKN T02110133
Loading
Personal Weather Stations






























Interactive Weather Map New forecast layout! Learn more

10-Day Weather Forecast

Advertisements
Track Severe Weather on mobile